Time;durP1;ratioP1;P1;durP2;ratioP2;P2;SDS_P1;SDS_P2;PMS_P1;PMS_P2;Temp;Humidity;BMP_temperature;BMP_pressure;BME280_temperature;BME280_humidity;BME280_pressure;Samples;Min_cycle;Max_cycle;Signal;HPM_P1;HPM_P2
2021/12/26 00:00:34;;;;;;;12.23;4.38;;;;;;;;;;5096122;28;20032;-75
2021/12/26 00:03:06;;;;;;;16.70;4.65;;;;;;;;;;5096324;28;20044;-81
2021/12/26 00:05:34;;;;;;;13.85;4.43;;;;;;;;;;5096208;28;20044;-74
2021/12/26 00:08:01;;;;;;;10.75;4.05;;;;;;;;;;5096240;28;20051;-75
2021/12/26 00:10:29;;;;;;;15.15;4.88;;;;;;;;;;5077937;28;20131;-75
2021/12/26 00:12:59;;;;;;;15.35;4.07;;;;;;;;;;5095947;28;20047;-75
2021/12/26 00:15:27;;;;;;;15.80;4.38;;;;;;;;;;5096314;28;20044;-74
2021/12/26 00:17:54;;;;;;;12.82;3.97;;;;;;;;;;5095702;28;20051;-81
2021/12/26 00:20:22;;;;;;;11.18;4.10;;;;;;;;;;5095402;28;20106;-81
2021/12/26 00:22:51;;;;;;;14.13;4.20;;;;;;;;;;5077924;28;20070;-74
2021/12/26 00:25:22;;;;;;;10.02;4.18;;;;;;;;;;5095799;28;20048;-74
2021/12/26 00:27:53;;;;;;;13.35;4.95;;;;;;;;;;5077610;28;20048;-81
2021/12/26 00:30:21;;;;;;;18.70;4.85;;;;;;;;;;5095589;28;20044;-75
2021/12/26 00:32:51;;;;;;;16.05;4.40;;;;;;;;;;5077355;28;20052;-75
2021/12/26 00:35:20;;;;;;;12.98;4.47;;;;;;;;;;5095831;28;20043;-81
2021/12/26 00:37:48;;;;;;;19.67;4.85;;;;;;;;;;5077134;28;20140;-79
2021/12/26 00:40:20;;;;;;;15.45;4.30;;;;;;;;;;5077197;28;20046;-75
2021/12/26 00:42:50;;;;;;;10.02;4.43;;;;;;;;;;5095341;28;20042;-75
2021/12/26 00:45:19;;;;;;;18.40;4.30;;;;;;;;;;5076571;28;20421;-81
2021/12/26 00:47:47;;;;;;;13.98;4.22;;;;;;;;;;5060703;28;20548;-82
2021/12/26 00:50:18;;;;;;;14.68;4.60;;;;;;;;;;5077209;28;20495;-75
2021/12/26 00:52:49;;;;;;;12.18;5.25;;;;;;;;;;5095533;28;20482;-74
2021/12/26 00:55:17;;;;;;;15.60;3.92;;;;;;;;;;5095310;28;20072;-74
2021/12/26 00:57:45;;;;;;;13.27;4.00;;;;;;;;;;5094900;28;20059;-82
2021/12/26 01:00:15;;;;;;;18.55;4.45;;;;;;;;;;5094093;28;20380;-74
2021/12/26 01:02:46;;;;;;;14.45;4.47;;;;;;;;;;5094965;28;20502;-74
2021/12/26 01:05:15;;;;;;;13.00;4.25;;;;;;;;;;5077010;28;20052;-79
2021/12/26 01:10:16;;;;;;;21.20;4.70;;;;;;;;;;5076330;28;20048;-74
2021/12/26 01:12:47;;;;;;;15.30;4.18;;;;;;;;;;5076573;28;20051;-81
2021/12/26 01:15:19;;;;;;;13.05;4.13;;;;;;;;;;5076969;28;20052;-75
2021/12/26 01:17:48;;;;;;;17.80;4.72;;;;;;;;;;5094478;28;20042;-81
2021/12/26 01:20:40;;;;;;;11.85;3.83;;;;;;;;;;5076347;28;20105;-80
2021/12/26 01:23:09;;;;;;;14.15;4.30;;;;;;;;;;5094536;28;20048;-74
2021/12/26 01:25:37;;;;;;;16.48;4.45;;;;;;;;;;5076258;28;20190;-81
2021/12/26 01:28:07;;;;;;;14.27;3.60;;;;;;;;;;5076540;28;20549;-75
2021/12/26 01:30:39;;;;;;;9.68;3.40;;;;;;;;;;5094755;28;20040;-79
2021/12/26 01:33:08;;;;;;;12.00;3.58;;;;;;;;;;5076059;28;20147;-74
2021/12/26 01:36:06;;;;;;;17.10;3.60;;;;;;;;;;5039601;28;20060;-81
2021/12/26 01:38:41;;;;;;;16.02;4.25;;;;;;;;;;5075890;28;20055;-75
2021/12/26 01:41:32;;;;;;;21.52;4.50;;;;;;;;;;5071607;28;20541;-79
2021/12/26 01:44:15;;;;;;;13.70;3.70;;;;;;;;;;5075916;28;20056;-74
2021/12/26 01:46:52;;;;;;;22.23;4.07;;;;;;;;;;5094124;28;20070;-79
2021/12/26 01:49:25;;;;;;;13.88;4.05;;;;;;;;;;5076151;28;20048;-79
2021/12/26 01:51:54;;;;;;;9.85;3.20;;;;;;;;;;5076176;28;20082;-75
2021/12/26 01:54:33;;;;;;;17.90;3.60;;;;;;;;;;5076160;28;20493;-79
2021/12/26 01:57:04;;;;;;;17.98;3.90;;;;;;;;;;5075314;28;20044;-75
2021/12/26 01:59:32;;;;;;;11.10;3.42;;;;;;;;;;5075653;28;20098;-81
2021/12/26 02:02:06;;;;;;;16.88;3.58;;;;;;;;;;5075771;28;20040;-74
2021/12/26 02:04:38;;;;;;;13.10;3.83;;;;;;;;;;5075597;28;20452;-79
2021/12/26 02:07:10;;;;;;;13.23;3.58;;;;;;;;;;5093603;28;20051;-74
2021/12/26 02:09:39;;;;;;;8.98;3.65;;;;;;;;;;5075524;28;20427;-74
2021/12/26 02:12:11;;;;;;;20.55;3.78;;;;;;;;;;5075626;28;20120;-80
2021/12/26 02:14:40;;;;;;;13.70;3.42;;;;;;;;;;5075884;28;20052;-79
2021/12/26 02:17:30;;;;;;;13.10;4.18;;;;;;;;;;5075502;28;20240;-75
2021/12/26 02:20:17;;;;;;;15.43;3.92;;;;;;;;;;5075311;28;20440;-74
2021/12/26 02:22:53;;;;;;;18.35;4.07;;;;;;;;;;5075257;28;20050;-81
2021/12/26 02:27:54;;;;;;;14.38;3.47;;;;;;;;;;5075595;28;20055;-79
2021/12/26 02:30:23;;;;;;;15.13;3.78;;;;;;;;;;5075416;28;20051;-75
2021/12/26 02:32:52;;;;;;;20.90;3.75;;;;;;;;;;5075308;28;20518;-81
2021/12/26 02:35:22;;;;;;;12.63;3.45;;;;;;;;;;5075295;28;20040;-81
2021/12/26 02:37:50;;;;;;;9.50;3.55;;;;;;;;;;5075475;28;20060;-81
2021/12/26 02:40:21;;;;;;;10.65;3.33;;;;;;;;;;5093420;28;20037;-80
2021/12/26 02:42:48;;;;;;;12.98;3.83;;;;;;;;;;5075255;28;20479;-79
2021/12/26 02:45:19;;;;;;;13.35;3.50;;;;;;;;;;5075011;28;20097;-79
2021/12/26 02:47:48;;;;;;;9.38;3.50;;;;;;;;;;5075110;28;20138;-74
2021/12/26 02:50:22;;;;;;;9.35;3.00;;;;;;;;;;5075422;28;20097;-74
2021/12/26 02:52:51;;;;;;;12.35;3.22;;;;;;;;;;5093329;28;20040;-81
2021/12/26 02:55:23;;;;;;;10.10;2.75;;;;;;;;;;5093044;28;20040;-81
2021/12/26 02:57:52;;;;;;;8.73;3.00;;;;;;;;;;5093006;28;20032;-75
2021/12/26 03:00:25;;;;;;;8.30;2.92;;;;;;;;;;5075510;28;20044;-75
2021/12/26 03:02:57;;;;;;;10.13;3.10;;;;;;;;;;5093235;28;20460;-79
2021/12/26 03:05:34;;;;;;;10.45;2.70;;;;;;;;;;5074859;28;20466;-81
2021/12/26 03:08:03;;;;;;;8.90;2.80;;;;;;;;;;5075224;28;20072;-80
2021/12/26 03:10:30;;;;;;;8.88;3.45;;;;;;;;;;5075080;28;20483;-81
2021/12/26 03:12:59;;;;;;;9.77;2.40;;;;;;;;;;5075186;28;20135;-75
2021/12/26 03:15:34;;;;;;;9.93;2.72;;;;;;;;;;5093144;28;20036;-74
2021/12/26 03:18:02;;;;;;;14.43;2.90;;;;;;;;;;5074877;28;20048;-81
2021/12/26 03:20:41;;;;;;;9.75;3.03;;;;;;;;;;5092941;28;20039;-81
2021/12/26 03:23:11;;;;;;;11.95;3.15;;;;;;;;;;5094634;28;20556;-74
2021/12/26 03:25:39;;;;;;;9.50;2.83;;;;;;;;;;5078784;28;20136;-80
2021/12/26 03:28:07;;;;;;;9.32;2.70;;;;;;;;;;5078827;28;20048;-82
2021/12/26 03:30:36;;;;;;;9.55;2.30;;;;;;;;;;5078698;28;20036;-74
2021/12/26 03:33:05;;;;;;;11.73;3.53;;;;;;;;;;5078441;28;20055;-78
2021/12/26 03:35:33;;;;;;;8.73;2.63;;;;;;;;;;5078543;28;20052;-81
2021/12/26 03:38:01;;;;;;;12.38;2.65;;;;;;;;;;5078369;28;20044;-74
2021/12/26 03:40:47;;;;;;;8.93;3.22;;;;;;;;;;5097004;28;20040;-75
2021/12/26 03:43:20;;;;;;;7.35;2.45;;;;;;;;;;5078130;28;20040;-74
2021/12/26 03:45:50;;;;;;;10.77;2.50;;;;;;;;;;5078404;28;20106;-74
2021/12/26 03:48:19;;;;;;;9.32;2.55;;;;;;;;;;5078543;28;20043;-79
2021/12/26 03:50:48;;;;;;;9.32;2.42;;;;;;;;;;5062037;28;20048;-74
2021/12/26 03:53:16;;;;;;;11.48;2.65;;;;;;;;;;5096657;28;20072;-79
2021/12/26 03:55:48;;;;;;;11.10;3.15;;;;;;;;;;5077922;28;20040;-74
2021/12/26 03:58:22;;;;;;;16.67;2.67;;;;;;;;;;5077586;28;20040;-81
2021/12/26 04:00:53;;;;;;;8.43;2.63;;;;;;;;;;5077817;28;20070;-74
2021/12/26 04:03:23;;;;;;;12.98;3.28;;;;;;;;;;5096075;28;20515;-81
2021/12/26 04:06:02;;;;;;;12.68;2.88;;;;;;;;;;5078074;28;20055;-79
2021/12/26 04:08:37;;;;;;;12.05;2.88;;;;;;;;;;5078139;28;20105;-74
2021/12/26 04:11:08;;;;;;;10.38;2.63;;;;;;;;;;5077557;28;20055;-74
2021/12/26 04:13:39;;;;;;;7.07;2.40;;;;;;;;;;5061580;28;20499;-74
2021/12/26 04:16:07;;;;;;;15.82;2.92;;;;;;;;;;5077496;28;20044;-81
2021/12/26 04:18:35;;;;;;;10.73;3.10;;;;;;;;;;5061282;28;20046;-75
2021/12/26 04:21:08;;;;;;;10.48;3.20;;;;;;;;;;5095642;28;20048;-80
2021/12/26 04:23:55;;;;;;;18.52;3.55;;;;;;;;;;5077804;28;20511;-75
2021/12/26 04:26:25;;;;;;;8.27;3.05;;;;;;;;;;5095957;28;20047;-75
2021/12/26 04:28:53;;;;;;;12.60;3.95;;;;;;;;;;5077661;28;20433;-80
2021/12/26 04:31:21;;;;;;;13.85;3.30;;;;;;;;;;5061308;28;20066;-79
2021/12/26 04:33:50;;;;;;;11.43;3.17;;;;;;;;;;5094688;28;20106;-79
2021/12/26 04:36:21;;;;;;;11.43;3.55;;;;;;;;;;5076804;28;20509;-74
2021/12/26 04:38:50;;;;;;;10.30;3.38;;;;;;;;;;5077357;28;20052;-81
2021/12/26 04:41:21;;;;;;;9.23;2.97;;;;;;;;;;5077262;28;20508;-81
2021/12/26 04:44:24;;;;;;;12.13;2.97;;;;;;;;;;5070507;28;20054;-74
2021/12/26 04:47:11;;;;;;;9.25;2.90;;;;;;;;;;5095031;28;20043;-79
2021/12/26 04:49:39;;;;;;;6.70;2.60;;;;;;;;;;5061081;28;20055;-81
2021/12/26 04:52:08;;;;;;;10.27;2.42;;;;;;;;;;5077601;28;20044;-81
2021/12/26 04:54:36;;;;;;;5.88;2.13;;;;;;;;;;5077066;28;20445;-81
2021/12/26 04:57:03;;;;;;;9.05;2.45;;;;;;;;;;5060203;28;20131;-79
2021/12/26 04:59:32;;;;;;;9.10;2.80;;;;;;;;;;5095270;28;20511;-75
2021/12/26 05:02:00;;;;;;;10.20;2.67;;;;;;;;;;5095294;28;20044;-74
2021/12/26 05:04:30;;;;;;;7.85;2.92;;;;;;;;;;5060263;28;20054;-81
2021/12/26 05:07:06;;;;;;;7.20;2.55;;;;;;;;;;5095059;28;20036;-75
2021/12/26 05:09:34;;;;;;;8.65;2.60;;;;;;;;;;5094775;28;20044;-81
2021/12/26 05:12:03;;;;;;;8.52;2.70;;;;;;;;;;5095099;28;20127;-75
2021/12/26 05:14:31;;;;;;;12.77;2.85;;;;;;;;;;5094904;28;20043;-75
2021/12/26 05:16:58;;;;;;;7.30;2.88;;;;;;;;;;5094964;28;20119;-81
2021/12/26 05:19:28;;;;;;;8.23;3.40;;;;;;;;;;5059882;28;20601;-75
2021/12/26 05:21:55;;;;;;;9.05;2.92;;;;;;;;;;5076205;28;20059;-81
2021/12/26 05:24:24;;;;;;;12.40;3.60;;;;;;;;;;5076512;28;20039;-82
2021/12/26 05:26:52;;;;;;;5.38;3.05;;;;;;;;;;5076605;28;20055;-81
2021/12/26 05:29:20;;;;;;;9.93;3.38;;;;;;;;;;5094825;28;20102;-81
2021/12/26 05:31:52;;;;;;;11.73;3.30;;;;;;;;;;5076395;28;20050;-75
2021/12/26 05:34:22;;;;;;;10.50;3.53;;;;;;;;;;5075858;28;20048;-82
2021/12/26 05:36:50;;;;;;;9.70;3.10;;;;;;;;;;5076002;28;20044;-80
2021/12/26 05:39:19;;;;;;;14.27;3.38;;;;;;;;;;5075815;28;20044;-82
2021/12/26 05:41:46;;;;;;;8.68;3.08;;;;;;;;;;5076231;28;20043;-80
2021/12/26 05:44:29;;;;;;;12.47;3.60;;;;;;;;;;5075981;28;20098;-75
2021/12/26 05:47:00;;;;;;;9.77;3.10;;;;;;;;;;5075485;28;20481;-80
2021/12/26 05:49:45;;;;;;;10.98;3.83;;;;;;;;;;5062105;28;20066;-76
2021/12/26 05:52:15;;;;;;;9.30;3.35;;;;;;;;;;5060129;28;20392;-75
2021/12/26 05:54:48;;;;;;;9.82;3.38;;;;;;;;;;5075859;28;20106;-80
2021/12/26 05:57:19;;;;;;;9.98;3.63;;;;;;;;;;5075300;28;20044;-74
2021/12/26 05:59:48;;;;;;;10.82;3.55;;;;;;;;;;5075848;28;20040;-80
2021/12/26 06:02:16;;;;;;;12.80;3.17;;;;;;;;;;5075721;28;20431;-79
2021/12/26 06:04:45;;;;;;;13.43;3.65;;;;;;;;;;5075857;28;20051;-75
2021/12/26 06:07:14;;;;;;;7.97;2.95;;;;;;;;;;5059448;28;20144;-75
2021/12/26 06:09:44;;;;;;;9.07;3.20;;;;;;;;;;5075440;28;20040;-80
2021/12/26 06:12:13;;;;;;;10.77;4.18;;;;;;;;;;5076108;28;20058;-80
2021/12/26 06:14:41;;;;;;;13.68;4.35;;;;;;;;;;5075309;28;20419;-81
2021/12/26 06:17:09;;;;;;;15.30;4.82;;;;;;;;;;5093592;28;20115;-82
2021/12/26 06:19:57;;;;;;;21.23;5.13;;;;;;;;;;5093779;28;20517;-75
2021/12/26 06:22:32;;;;;;;15.68;4.40;;;;;;;;;;5075117;28;20048;-74
2021/12/26 06:25:16;;;;;;;11.38;4.82;;;;;;;;;;5078057;28;20063;-75
2021/12/26 06:28:01;;;;;;;16.50;5.38;;;;;;;;;;5060854;28;20135;-76
2021/12/26 06:30:35;;;;;;;16.17;5.32;;;;;;;;;;5093556;28;20044;-74
2021/12/26 06:33:18;;;;;;;13.05;5.22;;;;;;;;;;5093438;28;20043;-80
2021/12/26 06:36:07;;;;;;;13.52;4.82;;;;;;;;;;5093523;28;20055;-74
2021/12/26 06:39:13;;;;;;;11.98;4.50;;;;;;;;;;5093251;28;20057;-75
2021/12/26 06:42:04;;;;;;;16.45;5.68;;;;;;;;;;5062024;28;20105;-81
2021/12/26 06:44:38;;;;;;;13.43;5.60;;;;;;;;;;5093222;28;20123;-80
2021/12/26 06:47:11;;;;;;;11.48;5.50;;;;;;;;;;5075142;28;20075;-75
2021/12/26 06:49:42;;;;;;;8.93;4.63;;;;;;;;;;5093491;28;20040;-75
2021/12/26 06:52:11;;;;;;;15.15;6.13;;;;;;;;;;5075676;28;20125;-82
2021/12/26 06:54:40;;;;;;;13.13;4.70;;;;;;;;;;5092823;28;20036;-82
2021/12/26 06:57:08;;;;;;;11.45;4.70;;;;;;;;;;5074883;28;20067;-75
2021/12/26 06:59:37;;;;;;;9.07;3.90;;;;;;;;;;5097420;28;20032;-75
2021/12/26 07:02:05;;;;;;;11.48;4.18;;;;;;;;;;5079251;28;20431;-79
2021/12/26 07:04:51;;;;;;;13.35;3.95;;;;;;;;;;5079186;28;20495;-75
2021/12/26 07:07:24;;;;;;;8.63;3.40;;;;;;;;;;5079231;28;20364;-76
2021/12/26 07:09:54;;;;;;;6.88;3.38;;;;;;;;;;5078937;28;20044;-79
2021/12/26 07:12:25;;;;;;;7.63;2.60;;;;;;;;;;5079336;28;20048;-75
2021/12/26 07:15:25;;;;;;;6.90;2.63;;;;;;;;;;5080879;28;20052;-75
2021/12/26 07:18:00;;;;;;;7.65;2.90;;;;;;;;;;5078922;28;20070;-75
2021/12/26 07:20:34;;;;;;;9.20;3.67;;;;;;;;;;5078760;28;20052;-75
2021/12/26 07:23:20;;;;;;;12.40;4.15;;;;;;;;;;5081467;28;20047;-80
2021/12/26 07:25:52;;;;;;;8.25;3.30;;;;;;;;;;5078645;28;20450;-74
2021/12/26 07:28:21;;;;;;;9.88;3.20;;;;;;;;;;5078894;28;20406;-82
2021/12/26 07:31:05;;;;;;;8.38;2.88;;;;;;;;;;5078799;28;20040;-80
2021/12/26 07:33:37;;;;;;;10.43;3.15;;;;;;;;;;5078553;28;20070;-80
2021/12/26 07:36:06;;;;;;;9.90;2.90;;;;;;;;;;5077983;28;20044;-75
2021/12/26 07:38:53;;;;;;;11.70;3.58;;;;;;;;;;5096815;28;20047;-75
2021/12/26 07:41:27;;;;;;;8.68;3.08;;;;;;;;;;5078481;28;20047;-80
2021/12/26 07:43:56;;;;;;;12.95;3.53;;;;;;;;;;5078024;28;20396;-76
2021/12/26 07:46:43;;;;;;;10.15;3.90;;;;;;;;;;5096664;28;20051;-76
2021/12/26 07:49:20;;;;;;;13.77;3.78;;;;;;;;;;5096905;28;20094;-82
2021/12/26 07:52:13;;;;;;;14.10;4.25;;;;;;;;;;5093722;28;20559;-80
2021/12/26 07:55:01;;;;;;;13.38;3.80;;;;;;;;;;5086933;28;20055;-81
2021/12/26 07:57:50;;;;;;;11.43;3.63;;;;;;;;;;5095789;28;20051;-83
2021/12/26 08:00:54;;;;;;;11.57;3.35;;;;;;;;;;5014037;28;20069;-80
2021/12/26 08:03:37;;;;;;;14.57;3.85;;;;;;;;;;5071132;28;20123;-81
2021/12/26 08:06:43;;;;;;;7.35;2.83;;;;;;;;;;5013724;28;20053;-80
2021/12/26 08:09:14;;;;;;;12.00;3.78;;;;;;;;;;5078445;28;20429;-83
2021/12/26 08:11:42;;;;;;;11.20;3.92;;;;;;;;;;5077729;28;20127;-75
2021/12/26 08:14:10;;;;;;;9.25;3.28;;;;;;;;;;5060761;28;20113;-75
2021/12/26 08:16:39;;;;;;;12.05;3.63;;;;;;;;;;5095824;28;20386;-75
2021/12/26 08:19:08;;;;;;;16.45;4.28;;;;;;;;;;5095518;28;20044;-77
2021/12/26 08:21:37;;;;;;;14.48;4.68;;;;;;;;;;5095202;28;20044;-77
2021/12/26 08:24:05;;;;;;;11.80;4.20;;;;;;;;;;5077397;28;20131;-75
2021/12/26 08:26:36;;;;;;;14.57;4.15;;;;;;;;;;5078049;28;20044;-75
2021/12/26 08:29:03;;;;;;;15.80;5.10;;;;;;;;;;5095441;28;20039;-83
2021/12/26 08:31:32;;;;;;;13.02;5.35;;;;;;;;;;5095311;28;20040;-83
2021/12/26 08:34:00;;;;;;;14.10;6.25;;;;;;;;;;5094894;28;20496;-80
2021/12/26 08:36:27;;;;;;;18.25;6.53;;;;;;;;;;5077765;28;20119;-74
2021/12/26 08:38:55;;;;;;;13.38;6.30;;;;;;;;;;5095239;28;20492;-75
2021/12/26 08:41:26;;;;;;;17.77;7.32;;;;;;;;;;5095048;28;20488;-83
2021/12/26 08:43:55;;;;;;;16.88;7.18;;;;;;;;;;5088760;28;20052;-77
2021/12/26 08:46:26;;;;;;;11.18;5.72;;;;;;;;;;5074602;28;20037;-74
2021/12/26 08:48:54;;;;;;;16.52;6.05;;;;;;;;;;5075298;28;20150;-82
2021/12/26 08:51:22;;;;;;;17.98;5.95;;;;;;;;;;5057175;28;20044;-76
2021/12/26 08:53:50;;;;;;;18.77;6.30;;;;;;;;;;5074862;28;20041;-83
2021/12/26 08:56:18;;;;;;;17.73;6.75;;;;;;;;;;5057053;28;20043;-77
2021/12/26 08:58:46;;;;;;;13.88;5.18;;;;;;;;;;5074182;28;20120;-80
2021/12/26 09:01:14;;;;;;;21.13;6.35;;;;;;;;;;5074572;28;20037;-76
2021/12/26 09:03:45;;;;;;;13.75;5.57;;;;;;;;;;5074354;28;20046;-83
2021/12/26 09:06:14;;;;;;;11.13;5.25;;;;;;;;;;5056877;28;20044;-76
2021/12/26 09:08:41;;;;;;;15.02;6.15;;;;;;;;;;5074433;28;20052;-84
2021/12/26 09:11:09;;;;;;;13.27;5.32;;;;;;;;;;5056444;28;20052;-81
2021/12/26 09:13:39;;;;;;;14.65;6.03;;;;;;;;;;5057136;28;20119;-76
2021/12/26 09:16:07;;;;;;;13.13;6.72;;;;;;;;;;5074166;28;20028;-77
2021/12/26 09:18:42;;;;;;;15.68;7.10;;;;;;;;;;5056280;28;20051;-75
2021/12/26 09:21:09;;;;;;;15.90;6.88;;;;;;;;;;5075973;28;20036;-78
2021/12/26 09:23:37;;;;;;;16.92;8.13;;;;;;;;;;5055941;28;20068;-75
2021/12/26 09:26:05;;;;;;;14.70;6.95;;;;;;;;;;5073849;28;20052;-76
2021/12/26 09:28:36;;;;;;;13.90;6.30;;;;;;;;;;5073980;28;20042;-77
2021/12/26 09:31:04;;;;;;;12.50;5.60;;;;;;;;;;5056956;28;20044;-78
2021/12/26 09:33:34;;;;;;;12.07;4.63;;;;;;;;;;5073754;28;20557;-84
2021/12/26 09:36:03;;;;;;;10.32;4.07;;;;;;;;;;5073530;28;20072;-73
2021/12/26 09:38:30;;;;;;;9.65;4.05;;;;;;;;;;5073631;28;20037;-75
2021/12/26 09:40:59;;;;;;;11.95;4.20;;;;;;;;;;5056219;28;20036;-74
2021/12/26 09:43:27;;;;;;;12.57;4.57;;;;;;;;;;5073212;28;20495;-73
2021/12/26 09:45:55;;;;;;;8.98;4.78;;;;;;;;;;5073315;28;20045;-82
2021/12/26 09:48:24;;;;;;;9.68;4.45;;;;;;;;;;5073457;28;20047;-79
2021/12/26 09:50:51;;;;;;;11.13;4.50;;;;;;;;;;5073349;28;20036;-82
2021/12/26 09:53:23;;;;;;;14.68;4.93;;;;;;;;;;5073676;28;20044;-74
2021/12/26 09:55:54;;;;;;;12.73;5.60;;;;;;;;;;5073287;28;20036;-73
2021/12/26 09:58:22;;;;;;;9.82;4.20;;;;;;;;;;5072821;28;20044;-73
2021/12/26 10:00:50;;;;;;;12.35;4.07;;;;;;;;;;5073445;28;20090;-80
2021/12/26 10:03:33;;;;;;;8.82;3.30;;;;;;;;;;5073543;28;20052;-78
2021/12/26 10:06:00;;;;;;;11.73;3.17;;;;;;;;;;5073049;28;20446;-73
2021/12/26 10:08:30;;;;;;;11.52;2.88;;;;;;;;;;5055721;28;20041;-73
2021/12/26 10:11:04;;;;;;;13.63;4.30;;;;;;;;;;5073004;28;20565;-81
2021/12/26 10:13:40;;;;;;;15.77;5.10;;;;;;;;;;5073150;28;20131;-75
2021/12/26 10:16:10;;;;;;;10.77;3.83;;;;;;;;;;5072967;28;20048;-75
2021/12/26 10:18:41;;;;;;;12.02;3.90;;;;;;;;;;5073101;28;20044;-79
2021/12/26 10:21:27;;;;;;;11.82;4.32;;;;;;;;;;5073203;28;20044;-78
2021/12/26 10:24:00;;;;;;;14.30;4.43;;;;;;;;;;5055087;28;20064;-74
2021/12/26 10:26:29;;;;;;;8.95;3.70;;;;;;;;;;5055239;28;20557;-74
2021/12/26 10:29:09;;;;;;;12.95;4.53;;;;;;;;;;5073163;28;20044;-78
2021/12/26 10:31:47;;;;;;;10.60;4.43;;;;;;;;;;5073050;28;20045;-79
2021/12/26 10:34:18;;;;;;;11.00;3.88;;;;;;;;;;5072818;28;20049;-78
2021/12/26 10:36:50;;;;;;;9.02;3.97;;;;;;;;;;5054816;28;20052;-81
2021/12/26 10:39:20;;;;;;;14.87;3.47;;;;;;;;;;5056097;28;20083;-79
2021/12/26 10:41:51;;;;;;;11.10;3.75;;;;;;;;;;5038693;28;20040;-74
2021/12/26 10:44:30;;;;;;;12.73;4.30;;;;;;;;;;5155260;22;20056;-77
2021/12/26 10:46:59;;;;;;;10.52;4.72;;;;;;;;;;5073097;28;20487;-77
2021/12/26 10:49:36;;;;;;;12.90;3.70;;;;;;;;;;5073303;28;20044;-83
2021/12/26 10:52:11;;;;;;;10.65;3.70;;;;;;;;;;5072916;28;20045;-78
2021/12/26 10:54:44;;;;;;;13.55;3.75;;;;;;;;;;5072542;28;20466;-83
2021/12/26 10:57:14;;;;;;;7.88;3.53;;;;;;;;;;5072867;28;20100;-77
2021/12/26 10:59:47;;;;;;;12.95;3.38;;;;;;;;;;5072500;28;20438;-77
2021/12/26 11:02:21;;;;;;;8.48;3.67;;;;;;;;;;5054992;28;20486;-76
2021/12/26 11:05:03;;;;;;;9.68;3.83;;;;;;;;;;5073064;28;20147;-80
2021/12/26 11:07:47;;;;;;;15.20;3.72;;;;;;;;;;5055085;28;20445;-80
2021/12/26 11:10:20;;;;;;;9.57;3.75;;;;;;;;;;5072221;28;20083;-77
2021/12/26 11:12:50;;;;;;;12.27;4.13;;;;;;;;;;5054890;28;20076;-77
2021/12/26 11:15:19;;;;;;;12.98;3.90;;;;;;;;;;5072429;28;20124;-77
2021/12/26 11:17:49;;;;;;;15.02;2.97;;;;;;;;;;5055114;28;20043;-78
2021/12/26 11:20:24;;;;;;;12.63;4.28;;;;;;;;;;5072613;28;20041;-77
2021/12/26 11:22:54;;;;;;;8.85;2.97;;;;;;;;;;5072612;28;20051;-77
2021/12/26 11:25:22;;;;;;;11.63;3.08;;;;;;;;;;5072677;28;20044;-83
2021/12/26 11:27:51;;;;;;;10.25;2.33;;;;;;;;;;5055445;28;20045;-80
2021/12/26 11:30:19;;;;;;;10.40;2.58;;;;;;;;;;5072650;28;20120;-76
2021/12/26 11:32:50;;;;;;;12.38;2.70;;;;;;;;;;5055409;28;20040;-83
2021/12/26 11:35:19;;;;;;;9.07;3.20;;;;;;;;;;5072140;28;20123;-80
2021/12/26 11:37:48;;;;;;;10.15;3.10;;;;;;;;;;5072429;28;20484;-78
2021/12/26 11:40:34;;;;;;;8.80;3.10;;;;;;;;;;5072655;28;20162;-78
2021/12/26 11:43:26;;;;;;;9.95;2.72;;;;;;;;;;5072698;28;20051;-81
2021/12/26 11:46:23;;;;;;;10.77;3.30;;;;;;;;;;5037889;28;20052;-83
2021/12/26 11:49:39;;;;;;;10.35;3.35;;;;;;;;;;5061956;28;20051;-78
2021/12/26 11:52:43;;;;;;;11.85;3.30;;;;;;;;;;5076526;28;20060;-76
2021/12/26 11:55:44;;;;;;;10.63;3.40;;;;;;;;;;5057781;28;20499;-76
2021/12/26 11:58:31;;;;;;;7.40;2.85;;;;;;;;;;5057443;28;20119;-76
2021/12/26 12:01:00;;;;;;;8.70;3.05;;;;;;;;;;5058436;28;20119;-76
2021/12/26 12:03:30;;;;;;;8.13;2.67;;;;;;;;;;5075744;28;20052;-83
2021/12/26 12:05:59;;;;;;;12.40;2.80;;;;;;;;;;5076041;28;20105;-77
2021/12/26 12:08:32;;;;;;;10.38;3.10;;;;;;;;;;5076163;28;20533;-83
2021/12/26 12:11:06;;;;;;;7.50;3.25;;;;;;;;;;5075548;28;20120;-84
2021/12/26 12:13:40;;;;;;;10.95;4.07;;;;;;;;;;5075618;28;20076;-83
2021/12/26 12:16:13;;;;;;;9.75;3.20;;;;;;;;;;5074856;28;20119;-83
2021/12/26 12:18:41;;;;;;;11.68;2.97;;;;;;;;;;5074916;28;20064;-76
2021/12/26 12:21:13;;;;;;;8.02;3.33;;;;;;;;;;5075347;28;20041;-77
2021/12/26 12:24:07;;;;;;;8.65;3.30;;;;;;;;;;5075225;28;20408;-76
2021/12/26 12:26:58;;;;;;;10.95;3.53;;;;;;;;;;5058084;28;20048;-83
2021/12/26 12:29:33;;;;;;;13.73;3.88;;;;;;;;;;5075585;28;20055;-80
2021/12/26 12:32:06;;;;;;;13.90;3.67;;;;;;;;;;5075885;28;20048;-77
2021/12/26 12:35:02;;;;;;;10.98;3.85;;;;;;;;;;5074796;28;20045;-81
2021/12/26 12:37:32;;;;;;;16.92;4.15;;;;;;;;;;5075532;28;20045;-81
2021/12/26 12:40:06;;;;;;;11.68;3.42;;;;;;;;;;5057106;28;20478;-79
2021/12/26 12:42:36;;;;;;;15.18;3.75;;;;;;;;;;5075300;28;20068;-84
2021/12/26 12:45:11;;;;;;;11.85;3.30;;;;;;;;;;5075275;28;20041;-76
2021/12/26 12:47:39;;;;;;;13.68;3.35;;;;;;;;;;5075160;28;20068;-81
2021/12/26 12:50:08;;;;;;;14.82;3.65;;;;;;;;;;5075126;28;20046;-82
2021/12/26 12:52:38;;;;;;;10.98;3.30;;;;;;;;;;5075603;28;20041;-80
2021/12/26 12:55:33;;;;;;;12.70;3.40;;;;;;;;;;5055754;28;20460;-83
2021/12/26 12:58:00;;;;;;;12.77;3.42;;;;;;;;;;5037486;28;20052;-77
2021/12/26 13:00:34;;;;;;;14.63;3.90;;;;;;;;;;5074992;28;20036;-84
2021/12/26 13:03:01;;;;;;;14.90;3.53;;;;;;;;;;5074942;28;20436;-80
2021/12/26 13:05:34;;;;;;;11.45;3.72;;;;;;;;;;5074917;28;20045;-76
2021/12/26 13:08:09;;;;;;;13.20;3.10;;;;;;;;;;5074720;28;20044;-75
2021/12/26 13:10:38;;;;;;;13.77;3.17;;;;;;;;;;5074405;28;20144;-80
2021/12/26 13:13:16;;;;;;;23.55;3.70;;;;;;;;;;5074699;28;20039;-76
2021/12/26 13:16:05;;;;;;;10.23;3.10;;;;;;;;;;5071604;28;20050;-81
2021/12/26 13:18:36;;;;;;;15.60;4.10;;;;;;;;;;5074625;28;20116;-83
2021/12/26 13:21:05;;;;;;;10.82;3.30;;;;;;;;;;5074490;28;20075;-82
2021/12/26 13:23:37;;;;;;;14.40;3.47;;;;;;;;;;5056284;28;20037;-82
2021/12/26 13:26:06;;;;;;;11.52;3.78;;;;;;;;;;5074422;28;20037;-82
2021/12/26 13:28:35;;;;;;;12.00;3.95;;;;;;;;;;5074224;28;20051;-82
2021/12/26 13:31:14;;;;;;;10.52;3.20;;;;;;;;;;5074276;28;20048;-75
2021/12/26 13:33:43;;;;;;;9.63;3.65;;;;;;;;;;5074002;28;20040;-75
2021/12/26 13:36:14;;;;;;;14.15;3.53;;;;;;;;;;5073550;28;20040;-79
2021/12/26 13:38:44;;;;;;;12.57;3.58;;;;;;;;;;5056525;28;20119;-81
2021/12/26 13:41:14;;;;;;;11.55;3.70;;;;;;;;;;5073902;28;20037;-83
2021/12/26 13:43:43;;;;;;;13.50;3.85;;;;;;;;;;5073559;28;20045;-76
2021/12/26 13:46:14;;;;;;;14.48;3.80;;;;;;;;;;5055828;28;20152;-79
2021/12/26 13:48:52;;;;;;;12.95;3.78;;;;;;;;;;5074070;28;20407;-75
2021/12/26 13:51:30;;;;;;;16.00;3.17;;;;;;;;;;5074033;28;20044;-79
2021/12/26 13:54:08;;;;;;;15.13;3.60;;;;;;;;;;5073521;28;20044;-82
2021/12/26 13:56:52;;;;;;;11.75;3.53;;;;;;;;;;5073480;28;20033;-74
2021/12/26 13:59:32;;;;;;;11.82;3.50;;;;;;;;;;5073355;28;20098;-79
2021/12/26 14:02:23;;;;;;;12.77;3.70;;;;;;;;;;5073311;28;20115;-75
2021/12/26 14:05:01;;;;;;;17.85;3.25;;;;;;;;;;5073828;28;20514;-82
2021/12/26 14:07:31;;;;;;;12.38;3.50;;;;;;;;;;5073425;28;20049;-79
2021/12/26 14:10:00;;;;;;;10.70;3.50;;;;;;;;;;5073176;28;20044;-79
2021/12/26 14:12:54;;;;;;;13.98;4.18;;;;;;;;;;5073047;28;20510;-74
2021/12/26 14:15:55;;;;;;;15.52;3.83;;;;;;;;;;5055527;28;20145;-82
2021/12/26 14:18:37;;;;;;;13.55;4.25;;;;;;;;;;5073437;28;20483;-80
2021/12/26 14:21:15;;;;;;;11.10;3.63;;;;;;;;;;5055370;28;20078;-75
2021/12/26 14:23:45;;;;;;;17.08;3.75;;;;;;;;;;5073014;28;20041;-76
2021/12/26 14:26:22;;;;;;;15.73;3.55;;;;;;;;;;5073081;28;20044;-81
2021/12/26 14:28:50;;;;;;;14.60;4.90;;;;;;;;;;5073535;28;20127;-75
2021/12/26 14:31:27;;;;;;;11.90;4.07;;;;;;;;;;5055412;28;20132;-76
2021/12/26 14:33:59;;;;;;;14.95;4.30;;;;;;;;;;5072917;28;20102;-79
2021/12/26 14:36:27;;;;;;;18.30;5.13;;;;;;;;;;5072838;28;20466;-80
2021/12/26 14:39:03;;;;;;;13.02;4.88;;;;;;;;;;5073125;28;20479;-74
2021/12/26 14:41:49;;;;;;;15.98;5.30;;;;;;;;;;5073132;28;20072;-74
2021/12/26 14:44:22;;;;;;;13.60;4.93;;;;;;;;;;5084128;28;20443;-74
2021/12/26 14:47:16;;;;;;;16.77;4.85;;;;;;;;;;5093007;28;20463;-75
2021/12/26 14:49:53;;;;;;;12.85;3.78;;;;;;;;;;5093266;28;20047;-80
2021/12/26 14:52:22;;;;;;;14.20;3.92;;;;;;;;;;5075113;28;20071;-76
2021/12/26 14:54:52;;;;;;;14.32;4.00;;;;;;;;;;5092863;28;20051;-76
2021/12/26 14:57:32;;;;;;;14.23;3.78;;;;;;;;;;5075181;28;20036;-82
2021/12/26 15:00:06;;;;;;;14.98;3.80;;;;;;;;;;5092793;28;20123;-82
2021/12/26 15:02:41;;;;;;;10.88;3.10;;;;;;;;;;5075137;28;20043;-82
2021/12/26 15:05:13;;;;;;;12.63;3.30;;;;;;;;;;5093072;28;20062;-76
2021/12/26 15:07:49;;;;;;;11.38;3.85;;;;;;;;;;5093224;28;20043;-74
2021/12/26 15:10:23;;;;;;;14.18;3.70;;;;;;;;;;5092829;28;21042;-74
2021/12/26 15:12:55;;;;;;;11.68;3.08;;;;;;;;;;5092766;28;20113;-79
2021/12/26 15:15:25;;;;;;;11.73;3.50;;;;;;;;;;5092968;28;20062;-79